sensor_id;sensor_type;location;lat;lon;timestamp;temperature;humidity
25250;DHT22;13201;51.148;13.738;2022-08-20T00:00:13;21.50;99.90
25250;DHT22;13201;51.148;13.738;2022-08-20T00:02:45;21.40;99.90
25250;DHT22;13201;51.148;13.738;2022-08-20T00:05:12;21.40;99.90
25250;DHT22;13201;51.148;13.738;2022-08-20T00:07:38;21.40;99.90
25250;DHT22;13201;51.148;13.738;2022-08-20T00:10:05;21.30;99.90
25250;DHT22;13201;51.148;13.738;2022-08-20T00:12:32;21.20;99.90
25250;DHT22;13201;51.148;13.738;2022-08-20T00:14:58;21.20;99.90
25250;DHT22;13201;51.148;13.738;2022-08-20T00:17:24;21.30;99.90
25250;DHT22;13201;51.148;13.738;2022-08-20T00:19:49;21.30;99.90
25250;DHT22;13201;51.148;13.738;2022-08-20T00:22:15;21.30;99.90
25250;DHT22;13201;51.148;13.738;2022-08-20T00:24:41;21.30;99.90
25250;DHT22;13201;51.148;13.738;2022-08-20T00:27:07;21.30;99.90
25250;DHT22;13201;51.148;13.738;2022-08-20T00:29:32;21.10;99.90
25250;DHT22;13201;51.148;13.738;2022-08-20T00:31:58;21.10;99.90
25250;DHT22;13201;51.148;13.738;2022-08-20T00:34:24;21.30;99.90
25250;DHT22;13201;51.148;13.738;2022-08-20T00:36:49;21.20;99.90
25250;DHT22;13201;51.148;13.738;2022-08-20T00:39:15;21.30;99.90
25250;DHT22;13201;51.148;13.738;2022-08-20T00:41:41;21.30;99.90
25250;DHT22;13201;51.148;13.738;2022-08-20T00:46:35;21.30;99.90
25250;DHT22;13201;51.148;13.738;2022-08-20T00:49:02;21.30;99.90
25250;DHT22;13201;51.148;13.738;2022-08-20T00:54:13;21.10;99.90
25250;DHT22;13201;51.148;13.738;2022-08-20T00:56:41;21.20;99.90
25250;DHT22;13201;51.148;13.738;2022-08-20T00:59:24;21.20;99.90
25250;DHT22;13201;51.148;13.738;2022-08-20T01:01:51;21.30;99.90
25250;DHT22;13201;51.148;13.738;2022-08-20T01:04:17;21.40;99.90
25250;DHT22;13201;51.148;13.738;2022-08-20T01:06:43;21.30;99.90
25250;DHT22;13201;51.148;13.738;2022-08-20T01:32:18;20.20;99.90
25250;DHT22;13201;51.148;13.738;2022-08-20T01:34:43;20.20;99.90
25250;DHT22;13201;51.148;13.738;2022-08-20T01:37:09;20.10;99.90
25250;DHT22;13201;51.148;13.738;2022-08-20T01:39:35;20.10;99.90
25250;DHT22;13201;51.148;13.738;2022-08-20T01:42:19;20.20;99.90
25250;DHT22;13201;51.148;13.738;2022-08-20T01:44:48;20.30;99.90
25250;DHT22;13201;51.148;13.738;2022-08-20T01:47:27;20.40;99.90
25250;DHT22;13201;51.148;13.738;2022-08-20T01:49:56;20.50;99.90
25250;DHT22;13201;51.148;13.738;2022-08-20T01:52:38;20.40;99.90
25250;DHT22;13201;51.148;13.738;2022-08-20T01:55:08;20.40;99.90
25250;DHT22;13201;51.148;13.738;2022-08-20T01:57:35;20.30;99.90
25250;DHT22;13201;51.148;13.738;2022-08-20T02:00:05;20.20;99.90
25250;DHT22;13201;51.148;13.738;2022-08-20T02:02:32;20.30;99.90
25250;DHT22;13201;51.148;13.738;2022-08-20T02:04:58;20.40;99.90
25250;DHT22;13201;51.148;13.738;2022-08-20T02:07:25;20.30;99.90
25250;DHT22;13201;51.148;13.738;2022-08-20T02:09:51;20.40;99.90
25250;DHT22;13201;51.148;13.738;2022-08-20T02:12:17;20.30;99.90
25250;DHT22;13201;51.148;13.738;2022-08-20T02:14:47;20.30;99.90
25250;DHT22;13201;51.148;13.738;2022-08-20T02:17:13;20.40;99.90
25250;DHT22;13201;51.148;13.738;2022-08-20T02:19:43;20.30;99.90
25250;DHT22;13201;51.148;13.738;2022-08-20T02:22:20;20.30;99.90
25250;DHT22;13201;51.148;13.738;2022-08-20T02:24:48;20.40;99.90
25250;DHT22;13201;51.148;13.738;2022-08-20T02:27:14;20.40;99.90
25250;DHT22;13201;51.148;13.738;2022-08-20T02:29:40;20.30;99.90
25250;DHT22;13201;51.148;13.738;2022-08-20T02:32:06;20.20;99.90
25250;DHT22;13201;51.148;13.738;2022-08-20T02:34:33;20.30;99.90
25250;DHT22;13201;51.148;13.738;2022-08-20T02:37:01;20.20;99.90
25250;DHT22;13201;51.148;13.738;2022-08-20T02:39:27;20.10;99.90
25250;DHT22;13201;51.148;13.738;2022-08-20T02:41:53;19.90;99.90
25250;DHT22;13201;51.148;13.738;2022-08-20T02:44:19;20.00;99.90
25250;DHT22;13201;51.148;13.738;2022-08-20T02:46:46;20.10;99.90
25250;DHT22;13201;51.148;13.738;2022-08-20T02:49:15;20.20;99.90
25250;DHT22;13201;51.148;13.738;2022-08-20T02:51:41;20.20;99.90
25250;DHT22;13201;51.148;13.738;2022-08-20T02:54:07;20.20;99.90
25250;DHT22;13201;51.148;13.738;2022-08-20T02:56:33;20.00;99.90
25250;DHT22;13201;51.148;13.738;2022-08-20T02:58:59;20.10;99.90
25250;DHT22;13201;51.148;13.738;2022-08-20T03:01:25;20.10;99.90
25250;DHT22;13201;51.148;13.738;2022-08-20T03:03:51;20.00;99.90
25250;DHT22;13201;51.148;13.738;2022-08-20T03:06:17;20.00;99.90
25250;DHT22;13201;51.148;13.738;2022-08-20T03:08:43;19.90;99.90
25250;DHT22;13201;51.148;13.738;2022-08-20T03:11:09;19.90;99.90
25250;DHT22;13201;51.148;13.738;2022-08-20T03:13:35;19.80;99.90
25250;DHT22;13201;51.148;13.738;2022-08-20T03:16:02;19.80;99.90
25250;DHT22;13201;51.148;13.738;2022-08-20T03:18:30;19.80;99.90
25250;DHT22;13201;51.148;13.738;2022-08-20T03:20:55;19.80;99.90
25250;DHT22;13201;51.148;13.738;2022-08-20T03:23:21;19.90;99.90
25250;DHT22;13201;51.148;13.738;2022-08-20T03:25:47;19.90;99.90
25250;DHT22;13201;51.148;13.738;2022-08-20T03:28:14;19.90;99.90
25250;DHT22;13201;51.148;13.738;2022-08-20T03:30:40;19.70;99.90
25250;DHT22;13201;51.148;13.738;2022-08-20T03:33:06;19.80;99.90
25250;DHT22;13201;51.148;13.738;2022-08-20T03:35:33;19.80;99.90
25250;DHT22;13201;51.148;13.738;2022-08-20T03:37:59;19.90;99.90
25250;DHT22;13201;51.148;13.738;2022-08-20T03:40:31;19.90;99.90
25250;DHT22;13201;51.148;13.738;2022-08-20T03:42:58;19.80;99.90
25250;DHT22;13201;51.148;13.738;2022-08-20T03:45:24;19.90;99.90
25250;DHT22;13201;51.148;13.738;2022-08-20T03:47:51;19.90;99.90
25250;DHT22;13201;51.148;13.738;2022-08-20T03:50:19;19.70;99.90
25250;DHT22;13201;51.148;13.738;2022-08-20T03:52:45;19.80;99.90
25250;DHT22;13201;51.148;13.738;2022-08-20T03:55:11;19.80;99.90
25250;DHT22;13201;51.148;13.738;2022-08-20T03:57:44;19.80;99.90
25250;DHT22;13201;51.148;13.738;2022-08-20T04:00:12;19.80;99.90
25250;DHT22;13201;51.148;13.738;2022-08-20T04:02:39;19.60;99.90
25250;DHT22;13201;51.148;13.738;2022-08-20T04:05:05;19.50;99.90
25250;DHT22;13201;51.148;13.738;2022-08-20T04:07:31;19.50;99.90
25250;DHT22;13201;51.148;13.738;2022-08-20T04:09:57;19.40;99.90
25250;DHT22;13201;51.148;13.738;2022-08-20T04:12:23;19.40;99.90
25250;DHT22;13201;51.148;13.738;2022-08-20T04:14:50;19.40;99.90
25250;DHT22;13201;51.148;13.738;2022-08-20T04:17:18;19.50;99.90
25250;DHT22;13201;51.148;13.738;2022-08-20T04:19:44;19.50;99.90
25250;DHT22;13201;51.148;13.738;2022-08-20T04:22:10;19.40;99.90
25250;DHT22;13201;51.148;13.738;2022-08-20T04:24:41;19.50;99.90
25250;DHT22;13201;51.148;13.738;2022-08-20T04:27:07;19.50;99.90
25250;DHT22;13201;51.148;13.738;2022-08-20T04:29:34;19.50;99.90
25250;DHT22;13201;51.148;13.738;2022-08-20T04:32:02;19.60;99.90
25250;DHT22;13201;51.148;13.738;2022-08-20T04:34:28;19.50;99.90
25250;DHT22;13201;51.148;13.738;2022-08-20T04:36:54;19.50;99.90
25250;DHT22;13201;51.148;13.738;2022-08-20T04:39:20;19.50;99.90
25250;DHT22;13201;51.148;13.738;2022-08-20T04:41:45;19.60;99.90
25250;DHT22;13201;51.148;13.738;2022-08-20T04:44:11;19.50;99.90
25250;DHT22;13201;51.148;13.738;2022-08-20T04:46:38;19.50;99.90
25250;DHT22;13201;51.148;13.738;2022-08-20T04:49:05;19.60;99.90
25250;DHT22;13201;51.148;13.738;2022-08-20T04:51:31;19.70;99.90
25250;DHT22;13201;51.148;13.738;2022-08-20T04:53:58;19.60;99.90
25250;DHT22;13201;51.148;13.738;2022-08-20T04:56:28;19.60;99.90
25250;DHT22;13201;51.148;13.738;2022-08-20T04:58:56;19.70;99.90
25250;DHT22;13201;51.148;13.738;2022-08-20T05:01:22;19.70;99.90
25250;DHT22;13201;51.148;13.738;2022-08-20T05:03:48;19.70;99.90
25250;DHT22;13201;51.148;13.738;2022-08-20T05:06:14;19.80;99.90
25250;DHT22;13201;51.148;13.738;2022-08-20T05:08:42;19.90;99.90
25250;DHT22;13201;51.148;13.738;2022-08-20T05:11:09;19.80;99.90
25250;DHT22;13201;51.148;13.738;2022-08-20T05:13:35;19.90;99.90
25250;DHT22;13201;51.148;13.738;2022-08-20T05:16:01;19.80;99.90
25250;DHT22;13201;51.148;13.738;2022-08-20T05:18:30;19.80;99.90
25250;DHT22;13201;51.148;13.738;2022-08-20T05:20:58;19.80;99.90
25250;DHT22;13201;51.148;13.738;2022-08-20T05:23:34;19.80;99.90
25250;DHT22;13201;51.148;13.738;2022-08-20T05:26:00;19.70;99.90
25250;DHT22;13201;51.148;13.738;2022-08-20T05:28:28;19.80;99.90
25250;DHT22;13201;51.148;13.738;2022-08-20T05:30:59;19.90;99.90
25250;DHT22;13201;51.148;13.738;2022-08-20T05:33:25;20.10;99.90
25250;DHT22;13201;51.148;13.738;2022-08-20T05:35:51;20.10;99.90
25250;DHT22;13201;51.148;13.738;2022-08-20T05:38:19;20.00;99.90
25250;DHT22;13201;51.148;13.738;2022-08-20T05:40:46;19.90;99.90
25250;DHT22;13201;51.148;13.738;2022-08-20T05:43:11;19.80;99.90
25250;DHT22;13201;51.148;13.738;2022-08-20T05:45:39;19.80;99.90
25250;DHT22;13201;51.148;13.738;2022-08-20T05:48:11;19.80;99.90
25250;DHT22;13201;51.148;13.738;2022-08-20T05:50:38;19.80;99.90
25250;DHT22;13201;51.148;13.738;2022-08-20T05:53:04;19.80;99.90
25250;DHT22;13201;51.148;13.738;2022-08-20T05:55:30;19.80;99.90
25250;DHT22;13201;51.148;13.738;2022-08-20T05:58:01;19.80;99.90
25250;DHT22;13201;51.148;13.738;2022-08-20T06:00:28;19.90;99.90
25250;DHT22;13201;51.148;13.738;2022-08-20T06:02:54;19.80;99.90
25250;DHT22;13201;51.148;13.738;2022-08-20T06:05:38;19.70;99.90
25250;DHT22;13201;51.148;13.738;2022-08-20T06:08:06;19.70;99.90
25250;DHT22;13201;51.148;13.738;2022-08-20T06:10:34;19.70;99.90
25250;DHT22;13201;51.148;13.738;2022-08-20T06:13:00;19.80;99.90
25250;DHT22;13201;51.148;13.738;2022-08-20T06:15:27;19.80;99.90
25250;DHT22;13201;51.148;13.738;2022-08-20T06:17:53;19.80;99.90
25250;DHT22;13201;51.148;13.738;2022-08-20T06:20:19;19.90;99.90
25250;DHT22;13201;51.148;13.738;2022-08-20T06:22:44;20.00;99.90
25250;DHT22;13201;51.148;13.738;2022-08-20T06:25:10;20.00;99.90
25250;DHT22;13201;51.148;13.738;2022-08-20T06:27:42;19.90;99.90
25250;DHT22;13201;51.148;13.738;2022-08-20T06:30:10;20.10;99.90
25250;DHT22;13201;51.148;13.738;2022-08-20T06:32:36;19.90;99.90
25250;DHT22;13201;51.148;13.738;2022-08-20T06:35:05;20.00;99.90
25250;DHT22;13201;51.148;13.738;2022-08-20T06:37:32;19.90;99.90
25250;DHT22;13201;51.148;13.738;2022-08-20T06:40:11;19.90;99.90
25250;DHT22;13201;51.148;13.738;2022-08-20T06:42:37;19.90;99.90
25250;DHT22;13201;51.148;13.738;2022-08-20T06:45:09;19.90;99.90
25250;DHT22;13201;51.148;13.738;2022-08-20T06:47:38;20.00;99.90
25250;DHT22;13201;51.148;13.738;2022-08-20T06:50:08;19.90;99.90
25250;DHT22;13201;51.148;13.738;2022-08-20T06:52:34;19.90;99.90
25250;DHT22;13201;51.148;13.738;2022-08-20T06:55:04;20.10;99.90
25250;DHT22;13201;51.148;13.738;2022-08-20T06:57:30;20.10;99.90
25250;DHT22;13201;51.148;13.738;2022-08-20T06:59:56;20.00;99.90
25250;DHT22;13201;51.148;13.738;2022-08-20T07:02:22;20.00;99.90
25250;DHT22;13201;51.148;13.738;2022-08-20T07:04:49;20.10;99.90
25250;DHT22;13201;51.148;13.738;2022-08-20T07:07:16;20.00;99.90
25250;DHT22;13201;51.148;13.738;2022-08-20T07:09:42;20.00;99.90
25250;DHT22;13201;51.148;13.738;2022-08-20T07:12:08;20.00;99.90
25250;DHT22;13201;51.148;13.738;2022-08-20T07:14:34;20.00;99.90
25250;DHT22;13201;51.148;13.738;2022-08-20T07:17:04;19.90;99.90
25250;DHT22;13201;51.148;13.738;2022-08-20T07:19:31;19.80;99.90
25250;DHT22;13201;51.148;13.738;2022-08-20T07:21:57;19.90;99.90
25250;DHT22;13201;51.148;13.738;2022-08-20T07:24:23;19.90;99.90
25250;DHT22;13201;51.148;13.738;2022-08-20T07:26:49;19.80;99.90
25250;DHT22;13201;51.148;13.738;2022-08-20T07:29:17;19.80;99.90
25250;DHT22;13201;51.148;13.738;2022-08-20T07:31:43;19.80;99.90
25250;DHT22;13201;51.148;13.738;2022-08-20T07:34:27;19.60;99.90
25250;DHT22;13201;51.148;13.738;2022-08-20T07:36:52;19.70;99.90
25250;DHT22;13201;51.148;13.738;2022-08-20T07:39:18;19.70;99.90
25250;DHT22;13201;51.148;13.738;2022-08-20T07:41:44;19.80;99.90
25250;DHT22;13201;51.148;13.738;2022-08-20T07:44:27;19.80;99.90
25250;DHT22;13201;51.148;13.738;2022-08-20T07:46:54;19.70;99.90
25250;DHT22;13201;51.148;13.738;2022-08-20T07:49:19;19.80;99.90
25250;DHT22;13201;51.148;13.738;2022-08-20T07:51:45;19.80;99.90
25250;DHT22;13201;51.148;13.738;2022-08-20T07:54:11;19.80;99.90
25250;DHT22;13201;51.148;13.738;2022-08-20T07:56:36;19.80;99.90
25250;DHT22;13201;51.148;13.738;2022-08-20T07:59:02;19.90;99.90
25250;DHT22;13201;51.148;13.738;2022-08-20T08:01:30;19.80;99.90
25250;DHT22;13201;51.148;13.738;2022-08-20T08:03:56;19.90;99.90
25250;DHT22;13201;51.148;13.738;2022-08-20T08:06:22;19.90;99.90
25250;DHT22;13201;51.148;13.738;2022-08-20T08:08:49;19.80;99.90
25250;DHT22;13201;51.148;13.738;2022-08-20T08:11:15;19.90;99.90
25250;DHT22;13201;51.148;13.738;2022-08-20T08:13:41;19.90;99.90
25250;DHT22;13201;51.148;13.738;2022-08-20T08:16:09;20.00;99.90
25250;DHT22;13201;51.148;13.738;2022-08-20T08:18:44;20.10;99.90
25250;DHT22;13201;51.148;13.738;2022-08-20T08:21:10;20.00;99.90
25250;DHT22;13201;51.148;13.738;2022-08-20T08:23:38;20.10;99.90
25250;DHT22;13201;51.148;13.738;2022-08-20T08:26:10;20.00;99.90
25250;DHT22;13201;51.148;13.738;2022-08-20T08:28:36;20.10;99.90
25250;DHT22;13201;51.148;13.738;2022-08-20T08:31:04;20.10;99.90
25250;DHT22;13201;51.148;13.738;2022-08-20T08:33:30;20.20;99.90
25250;DHT22;13201;51.148;13.738;2022-08-20T08:35:58;20.20;99.90
25250;DHT22;13201;51.148;13.738;2022-08-20T08:38:24;20.20;99.90
25250;DHT22;13201;51.148;13.738;2022-08-20T08:40:53;20.10;99.90
25250;DHT22;13201;51.148;13.738;2022-08-20T08:43:21;20.10;99.90
25250;DHT22;13201;51.148;13.738;2022-08-20T08:45:58;20.20;99.90
25250;DHT22;13201;51.148;13.738;2022-08-20T08:48:30;20.00;99.90
25250;DHT22;13201;51.148;13.738;2022-08-20T08:50:57;20.10;99.90
25250;DHT22;13201;51.148;13.738;2022-08-20T08:53:25;20.00;99.90
25250;DHT22;13201;51.148;13.738;2022-08-20T08:55:52;20.10;99.90
25250;DHT22;13201;51.148;13.738;2022-08-20T08:58:18;20.10;99.90
25250;DHT22;13201;51.148;13.738;2022-08-20T09:00:44;20.20;99.90
25250;DHT22;13201;51.148;13.738;2022-08-20T09:03:18;20.20;99.90
25250;DHT22;13201;51.148;13.738;2022-08-20T09:05:52;20.20;99.90
25250;DHT22;13201;51.148;13.738;2022-08-20T09:08:42;20.20;99.90
25250;DHT22;13201;51.148;13.738;2022-08-20T09:11:08;20.00;99.90
25250;DHT22;13201;51.148;13.738;2022-08-20T09:13:34;20.00;99.90
25250;DHT22;13201;51.148;13.738;2022-08-20T09:16:00;19.90;99.90
25250;DHT22;13201;51.148;13.738;2022-08-20T09:18:26;20.00;99.90
25250;DHT22;13201;51.148;13.738;2022-08-20T09:20:52;20.10;99.90
25250;DHT22;13201;51.148;13.738;2022-08-20T09:23:17;20.00;99.90
25250;DHT22;13201;51.148;13.738;2022-08-20T09:25:43;20.10;99.90
25250;DHT22;13201;51.148;13.738;2022-08-20T09:28:09;20.20;99.90
25250;DHT22;13201;51.148;13.738;2022-08-20T09:30:34;20.10;99.90
25250;DHT22;13201;51.148;13.738;2022-08-20T09:33:01;20.10;99.90
25250;DHT22;13201;51.148;13.738;2022-08-20T09:35:27;20.10;99.90
25250;DHT22;13201;51.148;13.738;2022-08-20T09:37:53;20.00;99.90
25250;DHT22;13201;51.148;13.738;2022-08-20T09:40:19;20.00;99.90
25250;DHT22;13201;51.148;13.738;2022-08-20T09:42:45;20.10;99.90
25250;DHT22;13201;51.148;13.738;2022-08-20T09:45:12;20.00;99.90
25250;DHT22;13201;51.148;13.738;2022-08-20T09:47:38;19.90;99.90
25250;DHT22;13201;51.148;13.738;2022-08-20T09:50:04;20.00;99.90
25250;DHT22;13201;51.148;13.738;2022-08-20T09:52:37;20.10;99.90
25250;DHT22;13201;51.148;13.738;2022-08-20T09:55:30;20.10;99.90
25250;DHT22;13201;51.148;13.738;2022-08-20T09:57:57;20.10;99.90
25250;DHT22;13201;51.148;13.738;2022-08-20T10:00:23;20.10;99.90
25250;DHT22;13201;51.148;13.738;2022-08-20T10:02:49;20.20;99.90
25250;DHT22;13201;51.148;13.738;2022-08-20T10:05:14;20.30;99.90
25250;DHT22;13201;51.148;13.738;2022-08-20T10:07:40;20.30;99.90
25250;DHT22;13201;51.148;13.738;2022-08-20T10:10:08;20.40;99.90
25250;DHT22;13201;51.148;13.738;2022-08-20T10:12:34;20.30;99.90
25250;DHT22;13201;51.148;13.738;2022-08-20T10:14:59;20.40;99.90
25250;DHT22;13201;51.148;13.738;2022-08-20T10:17:25;20.40;99.90
25250;DHT22;13201;51.148;13.738;2022-08-20T10:19:51;20.40;99.90
25250;DHT22;13201;51.148;13.738;2022-08-20T10:22:16;20.30;99.90
25250;DHT22;13201;51.148;13.738;2022-08-20T10:24:42;20.30;99.90
25250;DHT22;13201;51.148;13.738;2022-08-20T10:27:08;20.40;99.90
25250;DHT22;13201;51.148;13.738;2022-08-20T10:29:33;20.40;99.90
25250;DHT22;13201;51.148;13.738;2022-08-20T10:32:11;20.40;99.90
25250;DHT22;13201;51.148;13.738;2022-08-20T10:34:39;20.30;99.90
25250;DHT22;13201;51.148;13.738;2022-08-20T10:37:05;20.40;99.90
25250;DHT22;13201;51.148;13.738;2022-08-20T10:39:31;20.50;99.90
25250;DHT22;13201;51.148;13.738;2022-08-20T10:41:56;20.60;99.90
25250;DHT22;13201;51.148;13.738;2022-08-20T10:44:22;20.50;99.90
25250;DHT22;13201;51.148;13.738;2022-08-20T10:46:47;20.50;99.90
25250;DHT22;13201;51.148;13.738;2022-08-20T10:49:13;20.50;99.90
25250;DHT22;13201;51.148;13.738;2022-08-20T10:51:39;20.60;99.90
25250;DHT22;13201;51.148;13.738;2022-08-20T10:54:04;20.70;99.90
25250;DHT22;13201;51.148;13.738;2022-08-20T10:56:30;20.80;99.90
25250;DHT22;13201;51.148;13.738;2022-08-20T10:58:56;20.80;99.90
25250;DHT22;13201;51.148;13.738;2022-08-20T11:01:21;20.80;99.90
25250;DHT22;13201;51.148;13.738;2022-08-20T11:03:47;20.70;99.90
25250;DHT22;13201;51.148;13.738;2022-08-20T11:06:13;20.70;99.90
25250;DHT22;13201;51.148;13.738;2022-08-20T11:08:39;20.70;99.90
25250;DHT22;13201;51.148;13.738;2022-08-20T11:11:05;20.60;99.90
25250;DHT22;13201;51.148;13.738;2022-08-20T11:13:32;20.70;99.90
25250;DHT22;13201;51.148;13.738;2022-08-20T11:15:57;20.60;99.90
25250;DHT22;13201;51.148;13.738;2022-08-20T11:18:23;20.60;99.90
25250;DHT22;13201;51.148;13.738;2022-08-20T11:20:49;20.60;99.90
25250;DHT22;13201;51.148;13.738;2022-08-20T11:23:14;20.60;99.90
25250;DHT22;13201;51.148;13.738;2022-08-20T11:25:40;20.70;99.90
25250;DHT22;13201;51.148;13.738;2022-08-20T11:28:06;20.80;99.90
25250;DHT22;13201;51.148;13.738;2022-08-20T11:30:33;20.70;99.90
25250;DHT22;13201;51.148;13.738;2022-08-20T11:33:00;20.50;99.90
25250;DHT22;13201;51.148;13.738;2022-08-20T11:35:28;20.50;99.90
25250;DHT22;13201;51.148;13.738;2022-08-20T11:37:55;20.50;99.90
25250;DHT22;13201;51.148;13.738;2022-08-20T11:40:21;20.50;99.90
25250;DHT22;13201;51.148;13.738;2022-08-20T11:42:47;20.60;99.90
25250;DHT22;13201;51.148;13.738;2022-08-20T11:45:13;20.50;99.90
25250;DHT22;13201;51.148;13.738;2022-08-20T11:47:39;20.50;99.90
25250;DHT22;13201;51.148;13.738;2022-08-20T11:50:10;20.50;99.90
25250;DHT22;13201;51.148;13.738;2022-08-20T11:52:36;20.60;99.90
25250;DHT22;13201;51.148;13.738;2022-08-20T11:55:04;20.60;99.90
25250;DHT22;13201;51.148;13.738;2022-08-20T11:57:33;20.60;99.90
25250;DHT22;13201;51.148;13.738;2022-08-20T12:00:01;20.50;99.90
25250;DHT22;13201;51.148;13.738;2022-08-20T12:02:27;20.50;99.90
25250;DHT22;13201;51.148;13.738;2022-08-20T12:04:53;20.60;99.90
25250;DHT22;13201;51.148;13.738;2022-08-20T12:07:22;20.70;99.90
25250;DHT22;13201;51.148;13.738;2022-08-20T12:09:48;20.60;99.90
25250;DHT22;13201;51.148;13.738;2022-08-20T12:12:15;20.50;99.90
25250;DHT22;13201;51.148;13.738;2022-08-20T12:14:41;20.60;99.90
25250;DHT22;13201;51.148;13.738;2022-08-20T12:17:21;20.50;99.90
25250;DHT22;13201;51.148;13.738;2022-08-20T12:19:49;20.50;99.90
25250;DHT22;13201;51.148;13.738;2022-08-20T12:22:15;20.40;99.90
25250;DHT22;13201;51.148;13.738;2022-08-20T12:24:41;20.60;99.90
25250;DHT22;13201;51.148;13.738;2022-08-20T12:29:41;20.70;99.90
25250;DHT22;13201;51.148;13.738;2022-08-20T12:32:07;20.60;99.90
25250;DHT22;13201;51.148;13.738;2022-08-20T12:34:38;20.70;99.90
25250;DHT22;13201;51.148;13.738;2022-08-20T12:37:10;20.60;99.90
25250;DHT22;13201;51.148;13.738;2022-08-20T12:39:41;20.60;99.90
25250;DHT22;13201;51.148;13.738;2022-08-20T12:42:08;20.50;99.90
25250;DHT22;13201;51.148;13.738;2022-08-20T12:44:33;20.40;99.90
25250;DHT22;13201;51.148;13.738;2022-08-20T12:47:18;20.50;99.90
25250;DHT22;13201;51.148;13.738;2022-08-20T12:49:50;20.50;99.90
25250;DHT22;13201;51.148;13.738;2022-08-20T12:52:17;20.40;99.90
25250;DHT22;13201;51.148;13.738;2022-08-20T12:54:43;20.40;99.90
25250;DHT22;13201;51.148;13.738;2022-08-20T12:57:36;20.40;99.90
25250;DHT22;13201;51.148;13.738;2022-08-20T13:00:15;20.50;99.90
25250;DHT22;13201;51.148;13.738;2022-08-20T13:02:41;20.30;99.90
25250;DHT22;13201;51.148;13.738;2022-08-20T13:05:08;20.30;99.90
25250;DHT22;13201;51.148;13.738;2022-08-20T13:07:34;20.40;99.90
25250;DHT22;13201;51.148;13.738;2022-08-20T13:10:00;20.30;99.90
25250;DHT22;13201;51.148;13.738;2022-08-20T13:12:26;20.30;99.90
25250;DHT22;13201;51.148;13.738;2022-08-20T13:14:52;20.20;99.90
25250;DHT22;13201;51.148;13.738;2022-08-20T13:17:18;20.20;99.90
25250;DHT22;13201;51.148;13.738;2022-08-20T13:19:44;20.20;99.90
25250;DHT22;13201;51.148;13.738;2022-08-20T13:22:11;20.30;99.90
25250;DHT22;13201;51.148;13.738;2022-08-20T13:24:37;20.20;99.90
25250;DHT22;13201;51.148;13.738;2022-08-20T13:27:17;20.30;99.90
25250;DHT22;13201;51.148;13.738;2022-08-20T13:29:50;20.30;99.90
25250;DHT22;13201;51.148;13.738;2022-08-20T13:32:16;20.30;99.90
25250;DHT22;13201;51.148;13.738;2022-08-20T13:34:42;20.40;99.90
25250;DHT22;13201;51.148;13.738;2022-08-20T13:37:15;20.40;99.90
25250;DHT22;13201;51.148;13.738;2022-08-20T13:39:42;20.50;99.90
25250;DHT22;13201;51.148;13.738;2022-08-20T13:42:08;20.50;99.90
25250;DHT22;13201;51.148;13.738;2022-08-20T13:44:34;20.60;99.90
25250;DHT22;13201;51.148;13.738;2022-08-20T13:47:11;20.60;99.90
25250;DHT22;13201;51.148;13.738;2022-08-20T13:49:37;20.50;99.90
25250;DHT22;13201;51.148;13.738;2022-08-20T13:52:02;20.40;99.90
25250;DHT22;13201;51.148;13.738;2022-08-20T13:54:28;20.50;99.90
25250;DHT22;13201;51.148;13.738;2022-08-20T13:57:03;20.50;99.90
25250;DHT22;13201;51.148;13.738;2022-08-20T13:59:29;20.60;99.90
25250;DHT22;13201;51.148;13.738;2022-08-20T14:01:54;20.60;99.90
25250;DHT22;13201;51.148;13.738;2022-08-20T14:04:20;20.80;99.90
25250;DHT22;13201;51.148;13.738;2022-08-20T14:06:45;20.80;99.90
25250;DHT22;13201;51.148;13.738;2022-08-20T14:09:11;20.80;99.90
25250;DHT22;13201;51.148;13.738;2022-08-20T14:11:37;20.80;99.90
25250;DHT22;13201;51.148;13.738;2022-08-20T14:14:03;20.80;99.90
25250;DHT22;13201;51.148;13.738;2022-08-20T14:16:28;20.70;99.90
25250;DHT22;13201;51.148;13.738;2022-08-20T14:18:54;20.80;99.90
25250;DHT22;13201;51.148;13.738;2022-08-20T14:21:20;20.90;99.90
25250;DHT22;13201;51.148;13.738;2022-08-20T14:23:46;20.90;99.90
25250;DHT22;13201;51.148;13.738;2022-08-20T14:26:11;20.90;99.90
25250;DHT22;13201;51.148;13.738;2022-08-20T14:28:37;20.80;99.90
25250;DHT22;13201;51.148;13.738;2022-08-20T14:31:03;20.70;99.90
25250;DHT22;13201;51.148;13.738;2022-08-20T14:33:28;20.40;99.90
25250;DHT22;13201;51.148;13.738;2022-08-20T14:35:54;20.40;99.90
25250;DHT22;13201;51.148;13.738;2022-08-20T14:38:20;20.30;99.90
25250;DHT22;13201;51.148;13.738;2022-08-20T14:40:46;20.40;99.90
25250;DHT22;13201;51.148;13.738;2022-08-20T14:43:11;20.30;99.90
25250;DHT22;13201;51.148;13.738;2022-08-20T14:45:37;20.30;99.90
25250;DHT22;13201;51.148;13.738;2022-08-20T14:48:06;20.50;99.90
25250;DHT22;13201;51.148;13.738;2022-08-20T14:50:33;20.70;99.90
25250;DHT22;13201;51.148;13.738;2022-08-20T14:53:00;20.70;99.90
25250;DHT22;13201;51.148;13.738;2022-08-20T14:55:29;20.70;99.90
25250;DHT22;13201;51.148;13.738;2022-08-20T14:57:55;20.80;99.90
25250;DHT22;13201;51.148;13.738;2022-08-20T15:00:25;20.80;99.90
25250;DHT22;13201;51.148;13.738;2022-08-20T15:02:51;20.80;99.90
25250;DHT22;13201;51.148;13.738;2022-08-20T15:05:17;20.70;99.90
25250;DHT22;13201;51.148;13.738;2022-08-20T15:07:46;20.70;99.90
25250;DHT22;13201;51.148;13.738;2022-08-20T15:10:24;20.80;99.90
25250;DHT22;13201;51.148;13.738;2022-08-20T15:12:50;20.70;99.90
25250;DHT22;13201;51.148;13.738;2022-08-20T15:15:17;20.60;99.90
25250;DHT22;13201;51.148;13.738;2022-08-20T15:17:53;20.70;99.90
25250;DHT22;13201;51.148;13.738;2022-08-20T15:20:23;20.70;99.90
25250;DHT22;13201;51.148;13.738;2022-08-20T15:22:49;20.80;99.90
25250;DHT22;13201;51.148;13.738;2022-08-20T15:25:17;20.80;99.90
25250;DHT22;13201;51.148;13.738;2022-08-20T15:27:43;20.80;99.90
25250;DHT22;13201;51.148;13.738;2022-08-20T15:30:15;20.70;99.90
25250;DHT22;13201;51.148;13.738;2022-08-20T15:32:42;20.80;99.90
25250;DHT22;13201;51.148;13.738;2022-08-20T15:35:08;20.80;99.90
25250;DHT22;13201;51.148;13.738;2022-08-20T15:37:39;20.90;99.90
25250;DHT22;13201;51.148;13.738;2022-08-20T15:40:06;20.80;99.90
25250;DHT22;13201;51.148;13.738;2022-08-20T15:42:33;21.00;99.90
25250;DHT22;13201;51.148;13.738;2022-08-20T15:44:59;21.00;99.90
25250;DHT22;13201;51.148;13.738;2022-08-20T15:47:34;21.00;99.90